AAL5214 KBNA-KMEM
Flight info
| Callsign | AAL5214 |
|---|---|
| Flight time | 0h 49m |
| Altitude | 30000 |
| Route | DRURY4 JALAR FASON CRAMM VANZE3 |
| Aircraft | A319/M-SDE3FGHIRWY/LB1 |
Departure
| Time | 2026-05-08 03:25 |
|---|---|
| Airport | Nashville International Airport (KBNA) |
Arrival
| Time | 2026-05-08 04:14 |
|---|---|
| Airport | Memphis International Airport (KMEM) |
| Time | Latitude | Longitude | Altitude | Speed | Heading |
|---|---|---|---|---|---|
| 2026-05-08 03:00 | 36.12864 | -86.67116 | 570 ft | 0 kts | 63° |
| 2026-05-08 03:14 | 36.12857 | -86.67131 | 573 ft | 2 kts | 63° |
| 2026-05-08 03:14 | 36.12849 | -86.67149 | 571 ft | 2 kts | 87° |
| 2026-05-08 03:15 | 36.12848 | -86.67154 | 573 ft | 0 kts | 108° |
| 2026-05-08 03:15 | 36.12849 | -86.67160 | 572 ft | 2 kts | 121° |
| 2026-05-08 03:15 | 36.12859 | -86.67177 | 573 ft | 2 kts | 127° |
| 2026-05-08 03:15 | 36.12869 | -86.67193 | 569 ft | 2 kts | 127° |
| 2026-05-08 03:16 | 36.12872 | -86.67199 | 569 ft | 0 kts | 127° |
| 2026-05-08 03:18 | 36.12867 | -86.67195 | 569 ft | 2 kts | 151° |
| 2026-05-08 03:18 | 36.12838 | -86.67234 | 572 ft | 12 kts | 246° |
| 2026-05-08 03:19 | 36.12790 | -86.67345 | 570 ft | 16 kts | 229° |
| 2026-05-08 03:19 | 36.12709 | -86.67430 | 571 ft | 15 kts | 212° |
| 2026-05-08 03:19 | 36.12619 | -86.67498 | 574 ft | 16 kts | 211° |
| 2026-05-08 03:19 | 36.12531 | -86.67584 | 578 ft | 16 kts | 220° |
| 2026-05-08 03:20 | 36.12486 | -86.67667 | 574 ft | 10 kts | 271° |
| 2026-05-08 03:20 | 36.12536 | -86.67748 | 573 ft | 16 kts | 313° |
| 2026-05-08 03:20 | 36.12637 | -86.67881 | 575 ft | 23 kts | 315° |
| 2026-05-08 03:20 | 36.12739 | -86.68022 | 575 ft | 16 kts | 292° |
| 2026-05-08 03:21 | 36.12672 | -86.68104 | 577 ft | 16 kts | 196° |
| 2026-05-08 03:21 | 36.12553 | -86.68147 | 573 ft | 19 kts | 196° |
| 2026-05-08 03:21 | 36.12425 | -86.68194 | 574 ft | 20 kts | 197° |
| 2026-05-08 03:21 | 36.12292 | -86.68241 | 576 ft | 20 kts | 195° |
| 2026-05-08 03:22 | 36.12164 | -86.68287 | 580 ft | 19 kts | 196° |
| 2026-05-08 03:22 | 36.12038 | -86.68332 | 582 ft | 19 kts | 196° |
| 2026-05-08 03:22 | 36.11918 | -86.68375 | 588 ft | 17 kts | 196° |
| 2026-05-08 03:22 | 36.11839 | -86.68402 | 592 ft | 0 kts | 195° |
| 2026-05-08 03:23 | 36.11838 | -86.68402 | 592 ft | 0 kts | 195° |
| 2026-05-08 03:23 | 36.11834 | -86.68404 | 592 ft | 0 kts | 195° |
| 2026-05-08 03:23 | 36.11825 | -86.68407 | 592 ft | 0 kts | 195° |
| 2026-05-08 03:23 | 36.11794 | -86.68417 | 593 ft | 6 kts | 195° |
| 2026-05-08 03:24 | 36.11744 | -86.68510 | 602 ft | 16 kts | 271° |
| 2026-05-08 03:24 | 36.11789 | -86.68622 | 611 ft | 14 kts | 336° |
| 2026-05-08 03:24 | 36.11896 | -86.68596 | 601 ft | 19 kts | 18° |
| 2026-05-08 03:24 | 36.12256 | -86.68456 | 586 ft | 106 kts | 17° |
| 2026-05-08 03:25 | 36.13179 | -86.68074 | 1026 ft | 150 kts | 18° |
| 2026-05-08 03:25 | 36.13847 | -86.67767 | 1752 ft | 154 kts | 20° |
| 2026-05-08 03:25 | 36.14866 | -86.67291 | 2901 ft | 156 kts | 20° |
| 2026-05-08 03:25 | 36.15856 | -86.66823 | 3921 ft | 148 kts | 20° |
| 2026-05-08 03:26 | 36.16786 | -86.66370 | 4890 ft | 137 kts | 19° |
| 2026-05-08 03:26 | 36.17692 | -86.65930 | 4821 ft | 150 kts | 19° |
| 2026-05-08 03:26 | 36.18708 | -86.65439 | 4449 ft | 164 kts | 20° |
| 2026-05-08 03:26 | 36.19865 | -86.64916 | 4092 ft | 202 kts | 18° |
| 2026-05-08 03:27 | 36.21347 | -86.64267 | 4099 ft | 241 kts | 18° |
| 2026-05-08 03:27 | 36.22991 | -86.63706 | 4106 ft | 249 kts | 4° |
| 2026-05-08 03:27 | 36.24683 | -86.64133 | 4238 ft | 256 kts | 332° |
| 2026-05-08 03:27 | 36.25922 | -86.65709 | 5460 ft | 261 kts | 300° |
| 2026-05-08 03:28 | 36.26393 | -86.67867 | 6765 ft | 263 kts | 272° |
| 2026-05-08 03:28 | 36.26226 | -86.70118 | 8055 ft | 264 kts | 257° |
| 2026-05-08 03:28 | 36.25418 | -86.72163 | 9331 ft | 270 kts | 235° |
| 2026-05-08 03:28 | 36.23941 | -86.73655 | 10460 ft | 284 kts | 217° |
| 2026-05-08 03:29 | 36.22153 | -86.74939 | 10956 ft | 310 kts | 216° |
| 2026-05-08 03:29 | 36.20216 | -86.76275 | 11653 ft | 323 kts | 215° |
| 2026-05-08 03:29 | 36.18228 | -86.77617 | 12616 ft | 328 kts | 216° |
| 2026-05-08 03:29 | 36.16215 | -86.78973 | 13649 ft | 330 kts | 217° |
| 2026-05-08 03:30 | 36.12183 | -86.81712 | 15583 ft | 330 kts | 218° |
| 2026-05-08 03:30 | 36.08188 | -86.84445 | 17593 ft | 327 kts | 219° |
| 2026-05-08 03:31 | 36.04229 | -86.87172 | 19385 ft | 326 kts | 219° |
| 2026-05-08 03:31 | 36.00260 | -86.89905 | 20977 ft | 328 kts | 219° |
| 2026-05-08 03:32 | 35.98257 | -86.91282 | 21765 ft | 330 kts | 220° |
| 2026-05-08 03:32 | 35.96250 | -86.92659 | 22516 ft | 331 kts | 220° |
| 2026-05-08 03:32 | 35.94231 | -86.94043 | 23236 ft | 333 kts | 220° |
| 2026-05-08 03:32 | 35.92201 | -86.95431 | 23903 ft | 335 kts | 220° |
| 2026-05-08 03:33 | 35.90153 | -86.96830 | 24473 ft | 337 kts | 220° |
| 2026-05-08 03:33 | 35.88094 | -86.98236 | 25012 ft | 339 kts | 220° |
| 2026-05-08 03:33 | 35.86029 | -86.99644 | 25545 ft | 341 kts | 220° |
| 2026-05-08 03:33 | 35.83948 | -87.01063 | 26063 ft | 342 kts | 221° |
| 2026-05-08 03:34 | 35.81834 | -87.02510 | 26592 ft | 344 kts | 221° |
| 2026-05-08 03:34 | 35.79731 | -87.03946 | 27110 ft | 347 kts | 221° |
| 2026-05-08 03:34 | 35.77614 | -87.05388 | 27632 ft | 349 kts | 221° |
| 2026-05-08 03:34 | 35.75487 | -87.06838 | 28143 ft | 351 kts | 221° |
| 2026-05-08 03:35 | 35.73343 | -87.08300 | 28630 ft | 353 kts | 221° |
| 2026-05-08 03:35 | 35.71187 | -87.09765 | 29009 ft | 356 kts | 221° |
| 2026-05-08 03:35 | 35.69011 | -87.11242 | 29443 ft | 359 kts | 221° |
| 2026-05-08 03:35 | 35.66816 | -87.12733 | 29886 ft | 361 kts | 221° |
| 2026-05-08 03:36 | 35.64618 | -87.14226 | 30059 ft | 361 kts | 221° |
| 2026-05-08 03:36 | 35.60256 | -87.17172 | 30080 ft | 356 kts | 221° |
| 2026-05-08 03:37 | 35.55924 | -87.20100 | 30087 ft | 355 kts | 221° |
| 2026-05-08 03:37 | 35.51596 | -87.23032 | 30080 ft | 355 kts | 221° |
| 2026-05-08 03:38 | 35.47267 | -87.25960 | 30091 ft | 355 kts | 221° |
| 2026-05-08 03:38 | 35.42917 | -87.28891 | 30063 ft | 357 kts | 221° |
| 2026-05-08 03:39 | 35.38555 | -87.31828 | 30071 ft | 357 kts | 221° |
| 2026-05-08 03:39 | 35.34201 | -87.34770 | 30079 ft | 357 kts | 221° |
| 2026-05-08 03:40 | 35.29841 | -87.37704 | 30074 ft | 357 kts | 221° |
| 2026-05-08 03:40 | 35.25482 | -87.40630 | 30079 ft | 357 kts | 221° |
| 2026-05-08 03:41 | 35.21121 | -87.43547 | 30037 ft | 358 kts | 221° |
| 2026-05-08 03:41 | 35.16719 | -87.46490 | 30070 ft | 362 kts | 221° |
| 2026-05-08 03:42 | 35.12306 | -87.49446 | 30076 ft | 361 kts | 221° |
| 2026-05-08 03:42 | 35.07897 | -87.52393 | 30077 ft | 361 kts | 221° |
| 2026-05-08 03:43 | 35.03494 | -87.55328 | 30081 ft | 359 kts | 222° |
| 2026-05-08 03:43 | 35.01502 | -87.57065 | 30081 ft | 345 kts | 231° |
| 2026-05-08 03:43 | 34.99870 | -87.59203 | 30082 ft | 335 kts | 240° |
| 2026-05-08 03:44 | 34.97235 | -87.63852 | 30082 ft | 333 kts | 242° |
| 2026-05-08 03:44 | 34.94570 | -87.68540 | 30077 ft | 340 kts | 242° |
| 2026-05-08 03:45 | 34.91912 | -87.73211 | 30113 ft | 340 kts | 242° |
| 2026-05-08 03:45 | 34.89217 | -87.77935 | 30105 ft | 339 kts | 241° |
| 2026-05-08 03:46 | 34.86527 | -87.82649 | 30097 ft | 339 kts | 241° |
| 2026-05-08 03:46 | 34.83837 | -87.87354 | 30092 ft | 338 kts | 242° |
| 2026-05-08 03:47 | 34.81155 | -87.92051 | 30091 ft | 338 kts | 242° |
| 2026-05-08 03:47 | 34.78470 | -87.96744 | 30078 ft | 338 kts | 241° |
| 2026-05-08 03:48 | 34.75789 | -88.01431 | 30081 ft | 338 kts | 242° |
| 2026-05-08 03:48 | 34.73100 | -88.06115 | 30073 ft | 338 kts | 241° |
| 2026-05-08 03:49 | 34.70402 | -88.10808 | 30067 ft | 342 kts | 241° |
| 2026-05-08 03:49 | 34.68002 | -88.15743 | 30070 ft | 336 kts | 252° |
| 2026-05-08 03:50 | 34.67281 | -88.21324 | 30068 ft | 337 kts | 265° |
| 2026-05-08 03:50 | 34.67000 | -88.27059 | 30067 ft | 338 kts | 264° |
| 2026-05-08 03:51 | 34.66703 | -88.32775 | 30075 ft | 339 kts | 264° |
| 2026-05-08 03:51 | 34.66406 | -88.38500 | 30077 ft | 340 kts | 264° |
| 2026-05-08 03:52 | 34.66109 | -88.44236 | 30081 ft | 340 kts | 264° |
| 2026-05-08 03:52 | 34.65808 | -88.49973 | 30114 ft | 340 kts | 264° |
| 2026-05-08 03:53 | 34.65507 | -88.55674 | 29516 ft | 331 kts | 264° |
| 2026-05-08 03:53 | 34.65359 | -88.58446 | 28479 ft | 327 kts | 264° |
| 2026-05-08 03:53 | 34.65213 | -88.61184 | 27469 ft | 322 kts | 264° |
| 2026-05-08 03:53 | 34.65070 | -88.63873 | 26347 ft | 317 kts | 264° |
| 2026-05-08 03:54 | 34.64927 | -88.66523 | 25254 ft | 313 kts | 265° |
| 2026-05-08 03:54 | 34.64790 | -88.69149 | 24216 ft | 310 kts | 265° |
| 2026-05-08 03:54 | 34.64650 | -88.71744 | 23126 ft | 307 kts | 264° |
| 2026-05-08 03:54 | 34.64510 | -88.74323 | 22058 ft | 305 kts | 264° |
| 2026-05-08 03:55 | 34.64368 | -88.76874 | 21076 ft | 301 kts | 264° |
| 2026-05-08 03:55 | 34.64226 | -88.79390 | 20136 ft | 297 kts | 264° |
| 2026-05-08 03:55 | 34.64088 | -88.81877 | 19198 ft | 294 kts | 264° |
| 2026-05-08 03:55 | 34.63953 | -88.84353 | 18452 ft | 294 kts | 264° |
| 2026-05-08 03:56 | 34.63821 | -88.86800 | 18002 ft | 287 kts | 264° |
| 2026-05-08 03:56 | 34.63749 | -88.89198 | 17567 ft | 282 kts | 269° |
| 2026-05-08 03:56 | 34.64020 | -88.91576 | 17068 ft | 282 kts | 278° |
| 2026-05-08 03:56 | 34.64526 | -88.93868 | 16551 ft | 280 kts | 280° |
| 2026-05-08 03:57 | 34.65031 | -88.96144 | 16052 ft | 278 kts | 280° |
| 2026-05-08 03:57 | 34.65529 | -88.98406 | 15555 ft | 277 kts | 280° |
| 2026-05-08 03:57 | 34.66024 | -89.00663 | 15058 ft | 276 kts | 281° |
| 2026-05-08 03:57 | 34.66514 | -89.02912 | 14570 ft | 275 kts | 281° |
| 2026-05-08 03:58 | 34.67002 | -89.05154 | 14080 ft | 275 kts | 282° |
| 2026-05-08 03:58 | 34.67493 | -89.07395 | 13556 ft | 274 kts | 282° |
| 2026-05-08 03:58 | 34.67975 | -89.09626 | 13028 ft | 272 kts | 282° |
| 2026-05-08 03:58 | 34.68422 | -89.11855 | 12538 ft | 271 kts | 281° |
| 2026-05-08 03:59 | 34.68847 | -89.14080 | 12025 ft | 270 kts | 281° |
| 2026-05-08 03:59 | 34.69123 | -89.15545 | 11689 ft | 269 kts | 281° |
| 2026-05-08 03:59 | 34.69678 | -89.18507 | 10999 ft | 269 kts | 281° |
| 2026-05-08 03:59 | 34.70096 | -89.20717 | 10494 ft | 268 kts | 282° |
| 2026-05-08 04:00 | 34.70526 | -89.22930 | 10023 ft | 268 kts | 282° |
| 2026-05-08 04:00 | 34.70815 | -89.24388 | 9910 ft | 259 kts | 282° |
| 2026-05-08 04:01 | 34.72365 | -89.32821 | 8307 ft | 247 kts | 282° |
| 2026-05-08 04:01 | 34.72704 | -89.34866 | 7745 ft | 248 kts | 282° |
| 2026-05-08 04:01 | 34.73038 | -89.36936 | 7241 ft | 250 kts | 282° |
| 2026-05-08 04:02 | 34.73360 | -89.39020 | 6744 ft | 252 kts | 282° |
| 2026-05-08 04:02 | 34.73679 | -89.41131 | 6215 ft | 255 kts | 282° |
| 2026-05-08 04:02 | 34.73993 | -89.43262 | 5736 ft | 256 kts | 282° |
| 2026-05-08 04:02 | 34.74288 | -89.45403 | 5239 ft | 259 kts | 282° |
| 2026-05-08 04:03 | 34.74571 | -89.47561 | 4763 ft | 259 kts | 281° |
| 2026-05-08 04:03 | 34.75132 | -89.51906 | 4031 ft | 261 kts | 282° |
| 2026-05-08 04:03 | 34.75409 | -89.54088 | 4014 ft | 261 kts | 282° |
| 2026-05-08 04:04 | 34.75690 | -89.56282 | 4024 ft | 263 kts | 281° |
| 2026-05-08 04:04 | 34.75982 | -89.58513 | 4032 ft | 263 kts | 281° |
| 2026-05-08 04:04 | 34.76277 | -89.60705 | 4028 ft | 262 kts | 282° |
| 2026-05-08 04:04 | 34.76551 | -89.62878 | 4030 ft | 253 kts | 282° |
| 2026-05-08 04:05 | 34.76801 | -89.64908 | 4037 ft | 235 kts | 282° |
| 2026-05-08 04:05 | 34.77034 | -89.66818 | 4029 ft | 223 kts | 282° |
| 2026-05-08 04:05 | 34.77257 | -89.68657 | 4032 ft | 220 kts | 282° |
| 2026-05-08 04:05 | 34.77486 | -89.70495 | 4030 ft | 220 kts | 282° |
| 2026-05-08 04:06 | 34.77720 | -89.72343 | 4031 ft | 221 kts | 282° |
| 2026-05-08 04:06 | 34.77942 | -89.74179 | 3838 ft | 218 kts | 282° |
| 2026-05-08 04:06 | 34.78160 | -89.76023 | 3559 ft | 221 kts | 281° |
| 2026-05-08 04:06 | 34.78386 | -89.77865 | 3318 ft | 222 kts | 281° |
| 2026-05-08 04:07 | 34.78616 | -89.79720 | 3094 ft | 220 kts | 282° |
| 2026-05-08 04:07 | 34.78855 | -89.81564 | 3026 ft | 220 kts | 286° |
| 2026-05-08 04:07 | 34.79471 | -89.83229 | 3034 ft | 216 kts | 305° |
| 2026-05-08 04:07 | 34.80290 | -89.84763 | 3052 ft | 217 kts | 308° |
| 2026-05-08 04:08 | 34.81129 | -89.86281 | 3032 ft | 216 kts | 307° |
| 2026-05-08 04:08 | 34.81980 | -89.87791 | 3034 ft | 216 kts | 308° |
| 2026-05-08 04:08 | 34.82833 | -89.89273 | 2819 ft | 213 kts | 308° |
| 2026-05-08 04:08 | 34.83684 | -89.90758 | 2475 ft | 215 kts | 308° |
| 2026-05-08 04:09 | 34.84536 | -89.92249 | 2208 ft | 215 kts | 308° |
| 2026-05-08 04:09 | 34.85387 | -89.93723 | 2092 ft | 213 kts | 308° |
| 2026-05-08 04:09 | 34.86228 | -89.95192 | 2036 ft | 210 kts | 308° |
| 2026-05-08 04:09 | 34.87066 | -89.96654 | 2037 ft | 211 kts | 311° |
| 2026-05-08 04:10 | 34.88165 | -89.97804 | 2028 ft | 208 kts | 333° |
| 2026-05-08 04:10 | 34.89503 | -89.98373 | 2029 ft | 197 kts | 352° |
| 2026-05-08 04:10 | 34.90808 | -89.98438 | 2051 ft | 178 kts | 360° |
| 2026-05-08 04:10 | 34.91977 | -89.98468 | 2015 ft | 155 kts | 1° |
| 2026-05-08 04:11 | 34.92982 | -89.98488 | 2022 ft | 134 kts | 1° |
| 2026-05-08 04:11 | 34.93896 | -89.98508 | 1966 ft | 129 kts | 1° |
| 2026-05-08 04:11 | 34.94771 | -89.98527 | 1828 ft | 123 kts | 0° |
| 2026-05-08 04:11 | 34.95633 | -89.98545 | 1703 ft | 125 kts | 2° |
| 2026-05-08 04:12 | 34.96499 | -89.98563 | 1537 ft | 124 kts | 1° |
| 2026-05-08 04:12 | 34.97361 | -89.98581 | 1357 ft | 124 kts | 1° |
| 2026-05-08 04:12 | 34.98226 | -89.98599 | 1267 ft | 124 kts | 360° |
| 2026-05-08 04:12 | 34.99096 | -89.98615 | 1040 ft | 125 kts | 0° |
| 2026-05-08 04:13 | 34.99969 | -89.98627 | 850 ft | 126 kts | 359° |
| 2026-05-08 04:13 | 35.00844 | -89.98649 | 685 ft | 127 kts | 1° |
| 2026-05-08 04:13 | 35.01723 | -89.98678 | 512 ft | 127 kts | 3° |
| 2026-05-08 04:13 | 35.02602 | -89.98691 | 349 ft | 124 kts | 2° |
| 2026-05-08 04:14 | 35.03294 | -89.98708 | 319 ft | 65 kts | 357° |
| 2026-05-08 04:14 | 35.03614 | -89.98717 | 313 ft | 27 kts | 9° |
| 2026-05-08 04:14 | 35.03676 | -89.98594 | 312 ft | 15 kts | 21° |
| 2026-05-08 04:14 | 35.03689 | -89.98594 | 312 ft | 0 kts | 0° |
| 2026-05-08 04:15 | 35.03695 | -89.98593 | 312 ft | 4 kts | 1° |
| 2026-05-08 04:15 | 35.03770 | -89.98583 | 309 ft | 12 kts | 40° |
| 2026-05-08 04:15 | 35.03831 | -89.98501 | 309 ft | 15 kts | 19° |
| 2026-05-08 04:15 | 35.03944 | -89.98492 | 304 ft | 18 kts | 12° |
| 2026-05-08 04:16 | 35.03972 | -89.98373 | 306 ft | 16 kts | 90° |
| 2026-05-08 04:16 | 35.03974 | -89.98259 | 306 ft | 6 kts | 73° |
| 2026-05-08 04:16 | 35.04023 | -89.98207 | 308 ft | 15 kts | 43° |
| 2026-05-08 04:16 | 35.04071 | -89.98191 | 309 ft | 7 kts | 329° |
| 2026-05-08 04:17 | 35.04117 | -89.98226 | 309 ft | 7 kts | 333° |
| 2026-05-08 04:17 | 35.04130 | -89.98234 | 310 ft | 0 kts | 333° |
| 2026-05-08 04:17 | 35.04124 | -89.98231 | 310 ft | 0 kts | 333° |